Time;durP1;ratioP1;P1;durP2;ratioP2;P2;SDS_P1;SDS_P2;PMS_P1;PMS_P2;Temp;Humidity;BMP_temperature;BMP_pressure;BME280_temperature;BME280_humidity;BME280_pressure;Samples;Min_cycle;Max_cycle;Signal;HPM_P1;HPM_P2
2021/12/08 00:01:17;;;;;;;1.23;0.97;;;;;;;3.00;80.94;94959.81;5037135;28;20228;-71
2021/12/08 00:03:43;;;;;;;2.57;1.17;;;;;;;2.77;81.46;94953.59;5036884;28;20201;-70
2021/12/08 00:06:10;;;;;;;3.60;0.93;;;;;;;2.96;80.73;94942.09;5037770;28;20207;-70
2021/12/08 00:08:37;;;;;;;0.60;0.60;;;;;;;2.89;81.08;94944.53;5037039;28;20208;-69
2021/12/08 00:14:02;;;;;;;2.43;1.83;;;;;;;2.60;81.86;94931.16;4994455;28;20240;-70
2021/12/08 00:16:29;;;;;;;1.50;1.13;;;;;;;2.82;81.23;94925.31;5026587;28;20201;-69
2021/12/08 00:18:58;;;;;;;0.67;0.63;;;;;;;2.75;81.13;94921.75;5036809;28;20227;-70
2021/12/08 00:21:27;;;;;;;4.50;0.80;;;;;;;2.77;81.54;94921.59;5037168;28;20315;-70
2021/12/08 00:23:54;;;;;;;0.70;0.70;;;;;;;2.72;81.44;94919.47;5036281;28;20208;-69
2021/12/08 00:26:22;;;;;;;1.30;1.20;;;;;;;2.98;81.62;94914.94;5036773;28;20601;-70
2021/12/08 00:28:48;;;;;;;0.73;0.73;;;;;;;2.76;81.65;94913.00;5037149;28;20204;-70
2021/12/08 00:31:15;;;;;;;1.20;1.10;;;;;;;2.89;81.27;94920.28;5037452;28;20217;-69
2021/12/08 00:33:42;;;;;;;3.13;1.63;;;;;;;2.78;81.06;94923.22;5036630;28;20209;-70
2021/12/08 00:36:13;;;;;;;2.63;1.43;;;;;;;2.96;81.19;94918.69;5036992;28;20244;-69
2021/12/08 00:38:39;;;;;;;1.73;0.87;;;;;;;2.68;82.23;94923.38;5036745;28;20221;-71
2021/12/08 00:41:06;;;;;;;3.20;0.97;;;;;;;2.83;81.97;94920.97;5036931;28;20228;-69
2021/12/08 00:43:34;;;;;;;1.23;1.13;;;;;;;3.10;80.59;94927.44;5036152;28;20205;-70
2021/12/08 00:46:01;;;;;;;2.70;1.67;;;;;;;2.59;81.74;94920.94;5034066;28;20205;-70
2021/12/08 00:48:28;;;;;;;0.50;0.50;;;;;;;2.71;82.00;94917.88;5037267;28;20201;-70
2021/12/08 00:50:55;;;;;;;1.07;1.00;;;;;;;2.69;81.81;94911.19;5036474;28;20228;-69
2021/12/08 00:53:22;;;;;;;0.57;0.57;;;;;;;2.71;82.29;94907.47;5035123;28;20220;-70
2021/12/08 00:55:48;;;;;;;0.50;0.50;;;;;;;2.81;81.01;94915.09;5037056;28;20249;-70
2021/12/08 00:58:15;;;;;;;5.07;1.47;;;;;;;2.78;81.29;94916.22;5036602;28;20233;-70
2021/12/08 01:00:47;;;;;;;0.47;0.47;;;;;;;3.12;80.98;94916.88;5036139;28;20221;-70
2021/12/08 01:03:16;;;;;;;1.80;0.97;;;;;;;3.07;79.94;94929.56;5035523;28;20212;-70
2021/12/08 01:05:47;;;;;;;1.10;1.03;;;;;;;3.07;80.54;94924.38;5036555;28;20729;-70
2021/12/08 01:08:14;;;;;;;1.90;1.73;;;;;;;2.94;80.67;94934.47;5036935;28;20213;-71
2021/12/08 01:10:43;;;;;;;4.23;1.10;;;;;;;3.03;80.84;94934.28;5036536;28;20220;-70
2021/12/08 01:13:12;;;;;;;2.50;1.00;;;;;;;3.15;81.16;94932.16;5035898;28;20201;-69
2021/12/08 01:15:41;;;;;;;1.63;1.53;;;;;;;3.16;80.95;94939.00;5036666;28;20205;-70
2021/12/08 01:18:09;;;;;;;2.37;1.13;;;;;;;3.29;80.72;94932.28;5035459;28;20228;-70
2021/12/08 01:20:36;;;;;;;1.23;1.10;;;;;;;2.97;80.94;94934.13;5035954;28;20216;-70
2021/12/08 01:23:04;;;;;;;1.43;1.33;;;;;;;3.20;81.09;94922.06;5035831;28;20215;-70
2021/12/08 01:25:31;;;;;;;1.60;0.87;;;;;;;3.13;81.33;94908.91;5036338;28;20214;-70
2021/12/08 01:27:57;;;;;;;3.87;1.83;;;;;;;2.76;81.85;94909.56;5036116;28;20198;-71
2021/12/08 01:30:24;;;;;;;0.63;0.63;;;;;;;2.82;82.79;94898.53;5036540;28;20223;-71
2021/12/08 01:32:52;;;;;;;1.03;1.03;;;;;;;2.86;82.38;94889.41;5035783;28;20208;-70
2021/12/08 01:35:21;;;;;;;4.93;2.10;;;;;;;3.02;82.78;94879.81;5039468;28;20288;-70
2021/12/08 01:37:47;;;;;;;3.80;1.77;;;;;;;2.69;83.63;94870.41;5041062;28;20200;-69
2021/12/08 01:40:15;;;;;;;1.13;1.13;;;;;;;2.52;84.76;94858.38;5039877;28;20500;-70
2021/12/08 01:42:47;;;;;;;0.73;0.67;;;;;;;2.44;85.16;94847.97;5039325;28;20843;-69
2021/12/08 01:48:03;;;;;;;0.63;0.60;;;;;;;2.73;84.84;94857.88;5040359;28;20223;-69
2021/12/08 01:50:31;;;;;;;2.77;1.17;;;;;;;2.57;84.30;94876.91;5040327;28;20224;-69
2021/12/08 01:52:58;;;;;;;0.83;0.80;;;;;;;2.59;83.13;94882.75;5039277;28;20204;-69
2021/12/08 01:55:24;;;;;;;1.50;1.40;;;;;;;2.57;82.15;94874.31;5039780;28;20244;-69
2021/12/08 01:57:51;;;;;;;1.40;1.13;;;;;;;2.51;83.58;94880.13;5039743;28;20591;-69
2021/12/08 02:00:21;;;;;;;0.93;0.93;;;;;;;2.64;81.91;94879.66;5039873;28;20247;-69
2021/12/08 02:02:48;;;;;;;0.60;0.53;;;;;;;2.56;82.10;94893.47;5039006;28;20201;-69
2021/12/08 02:05:16;;;;;;;0.70;0.70;;;;;;;2.88;80.70;94880.47;5039223;28;20209;-70
2021/12/08 02:07:44;;;;;;;1.03;0.77;;;;;;;3.10;80.73;94872.00;5039234;28;20300;-71
2021/12/08 02:10:12;;;;;;;0.60;0.60;;;;;;;3.13;80.24;94861.25;5038880;28;20589;-70
2021/12/08 02:12:41;;;;;;;0.87;0.83;;;;;;;3.12;79.96;94851.84;5038381;28;20511;-68
2021/12/08 02:15:11;;;;;;;2.80;1.17;;;;;;;3.43;79.38;94850.13;5038424;28;20205;-71
2021/12/08 02:17:39;;;;;;;1.00;0.80;;;;;;;3.42;79.11;94844.09;5038991;28;21016;-70
2021/12/08 02:20:09;;;;;;;0.93;0.93;;;;;;;3.35;79.89;94844.94;5038385;28;20232;-69
2021/12/08 02:22:37;;;;;;;4.07;1.20;;;;;;;3.62;78.80;94860.16;5038458;28;20471;-69
2021/12/08 02:25:04;;;;;;;0.87;0.87;;;;;;;3.60;77.95;94862.09;5038659;28;20219;-70
2021/12/08 02:27:33;;;;;;;0.67;0.67;;;;;;;3.70;78.02;94866.94;5038796;28;20211;-70
2021/12/08 02:30:08;;;;;;;2.23;1.23;;;;;;;3.58;77.89;94869.25;5038480;28;20212;-69
2021/12/08 02:48:59;;;;;;;0.60;0.60;;;;;;;3.41;77.39;94896.31;5039035;28;20334;-69
2021/12/08 02:51:26;;;;;;;1.73;1.17;;;;;;;3.26;77.42;94906.59;5038398;28;20226;-70
2021/12/08 02:53:54;;;;;;;1.67;1.23;;;;;;;3.50;77.77;94906.56;5037925;28;20202;-69
2021/12/08 02:56:20;;;;;;;3.30;1.43;;;;;;;3.33;78.17;94904.16;5037894;28;20208;-69
2021/12/08 02:58:48;;;;;;;1.27;0.83;;;;;;;3.56;78.02;94890.25;5037951;28;20221;-70
2021/12/08 03:01:16;;;;;;;4.03;1.20;;;;;;;3.51;78.30;94899.56;5038103;28;20221;-69
2021/12/08 03:03:45;;;;;;;3.03;1.70;;;;;;;3.45;78.78;94902.81;5037807;28;20224;-69
2021/12/08 03:06:12;;;;;;;1.83;1.33;;;;;;;3.51;78.47;94886.53;5038303;28;20204;-69
2021/12/08 03:08:38;;;;;;;1.47;1.37;;;;;;;3.31;79.88;94885.28;5038194;28;20356;-69
2021/12/08 03:11:06;;;;;;;1.20;0.80;;;;;;;3.50;79.26;94882.31;5038011;28;20711;-69
2021/12/08 03:13:35;;;;;;;1.30;1.20;;;;;;;3.56;78.60;94879.03;5037495;28;20696;-69
2021/12/08 03:16:01;;;;;;;1.83;1.57;;;;;;;3.54;79.11;94868.78;5037710;28;20208;-68
2021/12/08 03:18:33;;;;;;;2.50;1.87;;;;;;;3.50;79.80;94871.88;5037612;28;20672;-70
2021/12/08 03:21:01;;;;;;;0.60;0.60;;;;;;;3.19;81.30;94860.59;5038044;28;20536;-69
2021/12/08 03:23:34;;;;;;;0.80;0.80;;;;;;;3.17;82.08;94859.94;5036737;28;20199;-70
2021/12/08 03:26:03;;;;;;;0.97;0.90;;;;;;;3.38;81.40;94870.63;5037921;28;20290;-69
2021/12/08 03:28:36;;;;;;;6.07;1.43;;;;;;;3.61;80.66;94855.91;5038291;28;20209;-69
2021/12/08 03:31:07;;;;;;;1.67;1.17;;;;;;;3.23;80.16;94857.50;5037192;28;20310;-69
2021/12/08 03:33:34;;;;;;;1.83;1.20;;;;;;;3.39;79.76;94854.03;5037240;28;20236;-70
2021/12/08 03:36:01;;;;;;;2.10;1.63;;;;;;;3.45;79.71;94848.16;5037444;28;20209;-69
2021/12/08 03:38:28;;;;;;;0.60;0.60;;;;;;;3.23;80.22;94833.25;5037691;28;20573;-69
2021/12/08 03:40:57;;;;;;;2.53;1.00;;;;;;;3.50;79.77;94832.84;5037399;28;20224;-70
2021/12/08 03:43:23;;;;;;;2.13;1.47;;;;;;;3.44;79.73;94847.34;5033768;28;20204;-69
2021/12/08 03:45:54;;;;;;;3.90;0.60;;;;;;;3.62;80.69;94853.94;5034287;28;20199;-70
2021/12/08 03:48:27;;;;;;;1.27;0.90;;;;;;;3.80;79.82;94856.31;5037045;28;20205;-70
2021/12/08 03:50:55;;;;;;;2.80;1.00;;;;;;;3.46;79.75;94850.56;5038164;28;20220;-69
2021/12/08 03:53:22;;;;;;;0.80;0.80;;;;;;;3.29;79.47;94862.03;5036607;28;20208;-69
2021/12/08 03:55:51;;;;;;;0.50;0.50;;;;;;;3.64;80.44;94861.59;5036647;28;20208;-70
2021/12/08 03:58:18;;;;;;;6.17;1.20;;;;;;;3.60;79.81;94856.88;5037616;28;20201;-69
2021/12/08 04:00:46;;;;;;;0.80;0.63;;;;;;;3.65;79.65;94864.03;5037881;28;20232;-70
2021/12/08 04:03:14;;;;;;;3.80;1.40;;;;;;;3.88;79.81;94864.91;5036310;28;20207;-69
2021/12/08 04:05:46;;;;;;;0.80;0.77;;;;;;;3.69;79.40;94865.31;5036511;28;20741;-70
2021/12/08 04:08:19;;;;;;;0.77;0.77;;;;;;;3.90;78.84;94865.53;5037741;28;20482;-69
2021/12/08 04:10:48;;;;;;;1.33;1.10;;;;;;;3.67;80.03;94866.47;5036611;28;20819;-70
2021/12/08 04:13:16;;;;;;;2.63;1.87;;;;;;;3.78;79.49;94869.53;5036077;28;20231;-69
2021/12/08 04:15:44;;;;;;;0.73;0.73;;;;;;;3.79;79.75;94867.72;5037352;28;20207;-69
2021/12/08 04:18:11;;;;;;;1.60;1.40;;;;;;;3.57;80.32;94867.66;5036807;28;20203;-70
2021/12/08 04:20:44;;;;;;;0.50;0.50;;;;;;;4.01;79.50;94865.19;5035853;28;20224;-70
2021/12/08 04:23:14;;;;;;;0.60;0.50;;;;;;;3.98;79.66;94869.91;5036479;28;20216;-69
2021/12/08 04:25:44;;;;;;;2.30;0.87;;;;;;;3.90;81.16;94862.94;5036970;28;20202;-69
2021/12/08 04:28:14;;;;;;;0.40;0.40;;;;;;;3.90;80.43;94862.94;5036916;28;20200;-69
2021/12/08 04:30:46;;;;;;;1.33;1.03;;;;;;;4.10;80.04;94865.94;5036780;28;20239;-69
2021/12/08 04:33:13;;;;;;;0.87;0.77;;;;;;;3.81;80.59;94869.16;5036158;28;20456;-69
2021/12/08 04:35:43;;;;;;;1.43;1.30;;;;;;;4.03;81.33;94865.00;5036783;28;20219;-69
2021/12/08 04:38:13;;;;;;;0.73;0.70;;;;;;;4.02;81.30;94861.59;5036894;28;20228;-70
2021/12/08 04:40:52;;;;;;;1.70;0.83;;;;;;;4.09;81.11;94852.09;5036842;28;20679;-69
2021/12/08 04:43:26;;;;;;;0.47;0.47;;;;;;;3.94;81.29;94863.41;5035680;28;20212;-69
2021/12/08 04:46:04;;;;;;;0.63;0.63;;;;;;;4.03;81.71;94857.97;5033521;28;20204;-69
2021/12/08 04:48:49;;;;;;;0.60;0.60;;;;;;;3.72;81.26;94859.75;5036080;28;20242;-68
2021/12/08 04:51:39;;;;;;;1.40;1.30;;;;;;;3.94;81.96;94855.59;5036063;28;20228;-69
2021/12/08 05:00:29;;;;;;;3.03;1.43;;;;;;;3.32;83.64;94845.25;5036258;28;20239;-69
2021/12/08 05:03:24;;;;;;;5.30;1.70;;;;;;;3.49;83.59;94849.44;5036013;28;20236;-69
2021/12/08 05:06:06;;;;;;;0.87;0.73;;;;;;;3.54;84.32;94837.56;5035348;28;20747;-70
2021/12/08 05:08:41;;;;;;;0.60;0.60;;;;;;;3.50;84.33;94846.69;5035508;28;20204;-70
2021/12/08 05:11:12;;;;;;;0.53;0.50;;;;;;;3.37;85.06;94848.97;5036799;28;20218;-69
2021/12/08 05:13:40;;;;;;;1.03;0.93;;;;;;;3.25;85.23;94842.50;5036327;28;20208;-68
2021/12/08 05:16:08;;;;;;;2.87;1.17;;;;;;;3.32;85.03;94850.47;5035609;28;20200;-69
2021/12/08 05:18:39;;;;;;;0.70;0.70;;;;;;;3.36;85.34;94849.97;5035796;28;20198;-69
2021/12/08 05:21:12;;;;;;;0.40;0.40;;;;;;;3.47;84.98;94854.00;5035968;28;20236;-70
2021/12/08 05:23:43;;;;;;;0.70;0.70;;;;;;;3.67;84.76;94856.84;5035387;28;20580;-69
2021/12/08 05:26:14;;;;;;;2.47;1.53;;;;;;;3.58;84.20;94851.03;5036154;28;20204;-70
2021/12/08 05:28:42;;;;;;;0.60;0.60;;;;;;;3.40;84.15;94848.66;5036367;28;20201;-69
2021/12/08 05:31:12;;;;;;;1.17;0.80;;;;;;;3.39;83.94;94841.03;5036110;28;20592;-68
2021/12/08 05:33:40;;;;;;;1.77;1.33;;;;;;;3.17;85.01;94852.13;5035333;28;20201;-69
2021/12/08 05:36:07;;;;;;;2.23;1.10;;;;;;;3.36;84.96;94851.75;5036018;28;20209;-68
2021/12/08 05:38:34;;;;;;;1.40;0.83;;;;;;;3.29;83.87;94856.00;5035553;28;20699;-69
2021/12/08 05:41:06;;;;;;;2.43;1.63;;;;;;;3.65;84.40;94838.00;5035744;28;20368;-69
2021/12/08 05:43:33;;;;;;;1.93;1.30;;;;;;;3.55;83.84;94846.97;5035593;28;20208;-69
2021/12/08 05:46:00;;;;;;;0.50;0.50;;;;;;;3.57;83.38;94845.00;5032382;28;20213;-69
2021/12/08 05:48:30;;;;;;;2.50;1.50;;;;;;;3.40;83.94;94846.06;5040361;28;20215;-69
2021/12/08 05:51:07;;;;;;;0.90;0.90;;;;;;;3.70;83.40;94851.31;5035518;28;20221;-70
2021/12/08 05:53:35;;;;;;;1.93;1.33;;;;;;;3.50;83.85;94861.47;5035298;28;20367;-70
2021/12/08 05:56:04;;;;;;;1.33;1.23;;;;;;;3.52;85.21;94878.56;5035686;28;20759;-69
2021/12/08 05:58:31;;;;;;;2.90;1.57;;;;;;;3.20;85.77;94876.03;5035656;28;20204;-69
2021/12/08 06:01:04;;;;;;;1.43;1.33;;;;;;;3.63;85.02;94858.16;5035257;28;20231;-70
2021/12/08 06:03:31;;;;;;;2.67;1.70;;;;;;;3.35;86.29;94866.56;5035120;28;20624;-69
2021/12/08 06:05:59;;;;;;;2.23;1.43;;;;;;;3.29;85.97;94869.03;5035456;28;20211;-69
2021/12/08 06:08:28;;;;;;;3.30;1.37;;;;;;;3.36;86.49;94859.56;5035971;28;20469;-69
2021/12/08 06:10:57;;;;;;;4.33;1.83;;;;;;;3.11;86.40;94858.81;5035013;28;20223;-67
2021/12/08 06:13:25;;;;;;;1.67;1.07;;;;;;;3.13;86.26;94861.25;5034998;28;20201;-68
2021/12/08 06:15:51;;;;;;;1.07;1.03;;;;;;;2.92;86.07;94855.75;5036052;28;20197;-68
2021/12/08 06:18:23;;;;;;;1.00;1.00;;;;;;;3.06;86.75;94855.09;5035234;28;20212;-68
2021/12/08 06:20:51;;;;;;;2.03;1.23;;;;;;;3.07;87.05;94851.50;5039066;28;20230;-67
2021/12/08 06:23:17;;;;;;;0.90;0.60;;;;;;;3.19;86.25;94847.56;5039716;28;20199;-68
2021/12/08 06:25:44;;;;;;;1.83;1.47;;;;;;;3.09;85.67;94849.53;5039828;28;20203;-67
2021/12/08 06:28:11;;;;;;;1.73;1.13;;;;;;;3.21;86.61;94843.03;5039491;28;20208;-67
2021/12/08 06:30:45;;;;;;;1.57;0.93;;;;;;;3.57;85.84;94828.59;5038721;28;20221;-67
2021/12/08 06:33:13;;;;;;;1.20;1.07;;;;;;;3.35;85.59;94839.75;5039961;28;20202;-67
2021/12/08 06:35:44;;;;;;;1.80;1.03;;;;;;;3.34;86.82;94830.28;5039752;28;20205;-68
2021/12/08 06:38:12;;;;;;;4.83;2.03;;;;;;;3.31;86.52;94839.25;5039285;28;20212;-68
2021/12/08 06:40:41;;;;;;;1.03;1.03;;;;;;;3.74;86.21;94842.19;5039722;28;20601;-67
2021/12/08 06:43:11;;;;;;;1.97;1.77;;;;;;;3.84;85.66;94829.75;5038055;28;21226;-68
2021/12/08 06:45:45;;;;;;;0.80;0.80;;;;;;;4.00;85.68;94823.66;5036064;28;20208;-67
2021/12/08 06:48:15;;;;;;;3.10;1.47;;;;;;;3.93;85.96;94820.91;5039888;28;20285;-68
2021/12/08 06:50:46;;;;;;;1.00;1.00;;;;;;;4.13;85.49;94811.66;5039443;28;20219;-67
2021/12/08 06:53:13;;;;;;;0.93;0.83;;;;;;;3.83;85.56;94814.28;5038685;28;20201;-67
2021/12/08 06:55:43;;;;;;;3.03;1.50;;;;;;;4.02;86.43;94813.84;5039691;28;20211;-68
2021/12/08 06:58:12;;;;;;;1.33;1.20;;;;;;;4.12;86.32;94828.28;5038821;28;20209;-68
2021/12/08 07:00:50;;;;;;;1.37;1.20;;;;;;;4.18;85.91;94825.00;5038343;28;20952;-68
2021/12/08 07:03:34;;;;;;;1.00;0.90;;;;;;;4.02;86.83;94819.91;5038902;28;21368;-67
2021/12/08 07:06:11;;;;;;;12.30;1.57;;;;;;;3.95;85.78;94818.94;5038652;28;20237;-67
2021/12/08 07:08:44;;;;;;;2.63;1.53;;;;;;;4.18;86.65;94825.00;5039018;28;20559;-67
2021/12/08 07:11:11;;;;;;;1.60;1.40;;;;;;;4.04;86.93;94830.94;5038738;28;20916;-67
2021/12/08 07:13:38;;;;;;;8.87;2.23;;;;;;;3.96;87.28;94833.59;5038709;28;20211;-67
2021/12/08 07:16:10;;;;;;;3.93;2.07;;;;;;;4.24;86.88;94834.75;5038557;28;20209;-67
2021/12/08 07:18:49;;;;;;;1.30;1.20;;;;;;;4.27;86.57;94848.22;5039217;28;20297;-68
2021/12/08 07:21:16;;;;;;;1.30;1.00;;;;;;;3.80;86.62;94858.91;5038351;28;20336;-68
2021/12/08 07:23:46;;;;;;;1.63;1.53;;;;;;;4.24;86.70;94856.41;5037624;28;21121;-68
2021/12/08 07:26:16;;;;;;;1.93;1.60;;;;;;;4.14;86.89;94859.38;5038043;28;20197;-68
2021/12/08 07:28:43;;;;;;;9.43;2.23;;;;;;;4.09;86.53;94852.09;5037801;28;20837;-68
2021/12/08 07:31:14;;;;;;;1.40;1.30;;;;;;;4.37;86.40;94848.03;5035960;28;20224;-67
2021/12/08 07:33:42;;;;;;;1.63;1.40;;;;;;;3.99;86.83;94851.50;5037652;28;21279;-68
2021/12/08 07:36:14;;;;;;;5.70;2.43;;;;;;;4.28;86.72;94851.66;5038244;28;20602;-67
2021/12/08 07:38:41;;;;;;;2.83;1.70;;;;;;;4.06;86.95;94849.00;5037501;28;20204;-67
2021/12/08 07:41:10;;;;;;;2.50;1.63;;;;;;;4.21;87.32;94844.69;5036955;28;20235;-67
2021/12/08 07:43:41;;;;;;;3.63;2.10;;;;;;;4.17;87.02;94836.41;5037468;28;20566;-68
2021/12/08 07:46:13;;;;;;;1.70;1.47;;;;;;;4.37;86.56;94833.16;5034350;28;20226;-68
2021/12/08 07:48:44;;;;;;;1.40;0.87;;;;;;;4.12;88.05;94838.72;5038793;28;20254;-67
2021/12/08 07:51:15;;;;;;;8.83;2.60;;;;;;;4.35;87.47;94847.38;5038225;28;20221;-68
2021/12/08 07:53:43;;;;;;;4.77;2.87;;;;;;;4.19;87.37;94849.25;5037128;28;20256;-68
2021/12/08 07:56:13;;;;;;;4.67;3.00;;;;;;;4.29;87.46;94855.91;5037928;28;20462;-70
2021/12/08 07:58:43;;;;;;;8.17;2.97;;;;;;;4.37;87.34;94856.63;5037637;28;20208;-70
2021/12/08 08:01:14;;;;;;;10.30;3.47;;;;;;;4.14;88.03;94851.56;5037802;28;20229;-70
2021/12/08 08:03:41;;;;;;;2.50;1.97;;;;;;;4.30;87.42;94849.69;5037024;28;20679;-70
2021/12/08 08:06:11;;;;;;;3.47;1.97;;;;;;;4.29;87.42;94850.69;5037976;28;20235;-70
2021/12/08 08:08:37;;;;;;;2.30;1.30;;;;;;;4.29;87.57;94837.66;5037342;28;20669;-70
2021/12/08 08:11:16;;;;;;;2.43;1.97;;;;;;;4.55;87.26;94835.50;5036903;28;20663;-70
2021/12/08 08:13:43;;;;;;;5.70;2.63;;;;;;;4.08;88.80;94832.22;5034307;28;20556;-70
2021/12/08 08:16:15;;;;;;;5.83;3.20;;;;;;;4.51;88.26;94829.81;5037925;28;20235;-70
2021/12/08 08:18:47;;;;;;;2.23;1.87;;;;;;;4.57;87.75;94830.91;5036809;28;20201;-70
2021/12/08 08:21:16;;;;;;;3.27;1.57;;;;;;;4.13;88.92;94823.91;5037261;28;20319;-70
2021/12/08 08:23:44;;;;;;;1.97;1.60;;;;;;;4.30;88.28;94826.22;5037271;28;20212;-71
2021/12/08 08:26:13;;;;;;;1.50;1.40;;;;;;;4.42;87.75;94819.63;5036676;28;20193;-70
2021/12/08 08:28:42;;;;;;;6.20;1.47;;;;;;;4.49;87.41;94818.75;5037094;28;20193;-70
2021/12/08 08:31:12;;;;;;;5.57;1.63;;;;;;;4.55;87.35;94825.06;5037135;28;20217;-70
2021/12/08 08:33:43;;;;;;;0.90;0.83;;;;;;;4.59;87.69;94823.72;5034168;28;20205;-70
2021/12/08 08:36:12;;;;;;;1.93;1.60;;;;;;;4.65;86.84;94810.00;5034146;28;20211;-70
2021/12/08 08:38:43;;;;;;;1.83;1.27;;;;;;;4.62;87.13;94813.75;5035603;28;20299;-70
2021/12/08 08:41:16;;;;;;;3.10;2.03;;;;;;;4.39;87.99;94802.53;5035687;28;20328;-70
2021/12/08 08:43:43;;;;;;;1.33;1.20;;;;;;;4.15;88.44;94801.06;5034227;28;20246;-70
2021/12/08 08:46:13;;;;;;;0.97;0.97;;;;;;;4.53;88.40;94798.34;5033769;28;20244;-70
2021/12/08 08:48:47;;;;;;;2.07;1.30;;;;;;;4.69;87.56;94803.44;5036787;28;20201;-70
2021/12/08 08:51:19;;;;;;;12.97;1.93;;;;;;;4.64;87.95;94800.53;5036007;28;20217;-70
2021/12/08 08:53:49;;;;;;;4.20;1.70;;;;;;;4.70;87.52;94800.66;5035196;28;20221;-70
2021/12/08 08:56:22;;;;;;;1.87;1.50;;;;;;;4.73;87.69;94799.47;5036381;28;20204;-70
2021/12/08 08:58:52;;;;;;;4.50;2.30;;;;;;;4.61;87.86;94790.44;5037000;28;20208;-69
2021/12/08 09:01:22;;;;;;;2.00;1.40;;;;;;;4.73;88.09;94779.41;5036517;28;20228;-70
2021/12/08 09:03:55;;;;;;;3.17;1.13;;;;;;;4.78;87.73;94784.13;5035763;28;20212;-70
2021/12/08 09:06:25;;;;;;;1.17;1.07;;;;;;;4.94;87.27;94782.97;5036404;28;20657;-70
2021/12/08 09:08:53;;;;;;;1.87;1.30;;;;;;;4.79;86.95;94794.38;5036354;28;20209;-69
2021/12/08 09:11:23;;;;;;;1.40;1.30;;;;;;;5.06;86.57;94793.78;5036341;28;20616;-69
2021/12/08 09:13:53;;;;;;;2.30;2.17;;;;;;;5.09;86.84;94804.69;5036146;28;20208;-70
2021/12/08 09:16:23;;;;;;;2.17;1.20;;;;;;;5.00;87.83;94804.91;5036457;28;20201;-69
2021/12/08 09:19:00;;;;;;;1.37;1.17;;;;;;;5.14;86.61;94796.31;5035925;28;20197;-70
2021/12/08 09:21:32;;;;;;;1.27;1.17;;;;;;;4.83;87.30;94801.66;5035755;28;21274;-70
2021/12/08 09:24:06;;;;;;;2.50;1.23;;;;;;;4.98;87.08;94789.44;5034308;28;20213;-70
2021/12/08 09:26:35;;;;;;;3.60;1.90;;;;;;;4.91;86.64;94793.78;5035497;28;20201;-70
2021/12/08 09:29:10;;;;;;;2.83;1.27;;;;;;;4.94;86.99;94788.19;5035795;28;20208;-69
2021/12/08 09:31:41;;;;;;;1.83;1.30;;;;;;;4.95;86.99;94784.59;5036272;28;20224;-70
2021/12/08 09:34:13;;;;;;;2.57;1.53;;;;;;;5.11;86.36;94789.63;5036418;28;20220;-70
2021/12/08 09:36:46;;;;;;;1.77;1.40;;;;;;;5.14;85.76;94799.75;5034147;28;20214;-70
2021/12/08 09:39:20;;;;;;;2.13;1.63;;;;;;;5.04;86.27;94803.56;5036250;28;20337;-69
2021/12/08 09:41:51;;;;;;;1.90;1.47;;;;;;;4.90;87.06;94796.53;5036243;28;20231;-69
2021/12/08 09:44:23;;;;;;;1.37;1.27;;;;;;;5.09;86.15;94791.63;5036002;28;20552;-69
2021/12/08 09:46:52;;;;;;;3.17;1.83;;;;;;;4.94;86.38;94793.41;5035494;28;20269;-69
2021/12/08 09:49:23;;;;;;;1.40;1.30;;;;;;;5.11;86.44;94773.97;5035712;28;20208;-69
2021/12/08 09:51:51;;;;;;;1.77;1.20;;;;;;;4.97;86.38;94773.97;5036421;28;20227;-69
2021/12/08 09:54:18;;;;;;;2.57;1.87;;;;;;;4.83;86.66;94759.91;5036429;28;20704;-69
2021/12/08 09:56:47;;;;;;;2.33;1.47;;;;;;;4.90;86.63;94753.00;5039949;28;20198;-69
2021/12/08 09:59:13;;;;;;;2.03;1.80;;;;;;;4.76;87.03;94749.56;5039387;28;20232;-69
2021/12/08 10:01:41;;;;;;;3.90;1.67;;;;;;;4.49;87.36;94744.91;5039813;28;20225;-69
2021/12/08 10:04:09;;;;;;;3.50;2.33;;;;;;;4.82;87.57;94740.03;5039369;28;20212;-70
2021/12/08 10:06:39;;;;;;;2.43;1.80;;;;;;;4.88;87.22;94744.53;5040015;28;20200;-68
2021/12/08 10:09:06;;;;;;;2.20;1.90;;;;;;;4.78;86.63;94735.34;5040429;28;20205;-68
2021/12/08 10:11:32;;;;;;;2.80;2.40;;;;;;;4.90;86.40;94734.72;5040045;28;20213;-68
2021/12/08 10:14:00;;;;;;;2.60;1.80;;;;;;;5.05;86.28;94735.56;5038863;28;20208;-68
2021/12/08 10:16:27;;;;;;;5.50;2.07;;;;;;;5.03;85.94;94736.72;5040248;28;20201;-68
2021/12/08 10:18:55;;;;;;;2.80;1.50;;;;;;;4.93;86.41;94729.13;5040420;28;20233;-69
2021/12/08 10:21:31;;;;;;;3.63;1.77;;;;;;;4.97;86.88;94740.84;5039827;28;20229;-69
2021/12/08 10:23:59;;;;;;;2.90;2.20;;;;;;;5.25;86.23;94746.25;5039748;28;20205;-69
2021/12/08 10:26:25;;;;;;;5.37;1.40;;;;;;;5.03;86.28;94745.34;5040347;28;20205;-69
2021/12/08 10:28:55;;;;;;;2.87;2.57;;;;;;;5.05;86.90;94743.38;5040079;28;20298;-69
2021/12/08 10:31:27;;;;;;;1.63;1.47;;;;;;;5.01;87.03;94749.13;5039976;28;20256;-68
2021/12/08 10:34:04;;;;;;;2.90;1.50;;;;;;;4.99;86.80;94744.09;5038446;28;20253;-68
2021/12/08 10:36:45;;;;;;;3.13;2.20;;;;;;;4.92;87.10;94731.94;5039472;28;20207;-68
2021/12/08 10:39:20;;;;;;;4.10;2.83;;;;;;;5.07;87.11;94738.78;5040159;28;20266;-68
2021/12/08 10:41:51;;;;;;;1.43;1.33;;;;;;;5.19;86.71;94733.91;5039370;28;20228;-68
2021/12/08 10:44:23;;;;;;;3.17;2.00;;;;;;;5.06;86.92;94726.72;5038850;28;20207;-69
2021/12/08 10:46:55;;;;;;;6.17;3.37;;;;;;;5.17;86.56;94723.66;5040137;28;20205;-68
2021/12/08 10:49:27;;;;;;;5.67;3.03;;;;;;;4.76;86.83;94721.69;5040029;28;20319;-69
2021/12/08 10:54:39;;;;;;;3.27;2.23;;;;;;;4.80;87.92;94714.28;5039434;28;20624;-69
2021/12/08 10:57:23;;;;;;;2.10;1.70;;;;;;;5.05;87.47;94706.00;5039776;28;20542;-69
2021/12/08 10:59:59;;;;;;;7.87;3.23;;;;;;;5.08;88.10;94701.25;5039521;28;20205;-69
2021/12/08 11:02:41;;;;;;;16.47;2.67;;;;;;;5.09;87.65;94710.72;5038849;28;20216;-68
2021/12/08 11:05:28;;;;;;;2.20;2.00;;;;;;;5.13;87.65;94701.53;5038791;28;20204;-70
2021/12/08 11:07:59;;;;;;;2.80;2.07;;;;;;;5.31;86.77;94707.19;5039393;28;20201;-69
2021/12/08 11:10:28;;;;;;;2.90;1.93;;;;;;;5.29;86.85;94709.16;5039464;28;20840;-69
2021/12/08 11:12:55;;;;;;;4.13;2.40;;;;;;;5.13;86.71;94706.75;5038794;28;20197;-69
2021/12/08 11:15:23;;;;;;;5.37;2.67;;;;;;;5.18;86.60;94696.56;5039084;28;20208;-70
2021/12/08 11:18:11;;;;;;;5.53;2.97;;;;;;;5.39;85.86;94701.03;5038669;28;21026;-69
2021/12/08 11:20:44;;;;;;;5.77;2.77;;;;;;;5.38;86.06;94705.44;5038573;28;20248;-69
2021/12/08 11:23:15;;;;;;;3.43;1.73;;;;;;;5.36;86.45;94701.38;5036740;28;20235;-69
2021/12/08 11:25:46;;;;;;;3.83;2.10;;;;;;;5.48;86.36;94690.28;5037869;28;20662;-70
2021/12/08 11:28:22;;;;;;;1.83;1.70;;;;;;;5.50;85.79;94670.03;5035983;28;20212;-69
2021/12/08 11:30:49;;;;;;;2.67;1.57;;;;;;;4.82;87.74;94648.72;5037741;28;20248;-70
2021/12/08 11:33:19;;;;;;;5.73;3.10;;;;;;;5.05;88.11;94644.19;5037596;28;20204;-70
2021/12/08 11:35:46;;;;;;;6.10;1.90;;;;;;;5.14;87.38;94664.00;5039025;28;20624;-70
2021/12/08 11:38:14;;;;;;;2.40;1.97;;;;;;;5.04;87.75;94658.22;5036279;28;20201;-69
2021/12/08 11:40:41;;;;;;;3.40;2.30;;;;;;;5.02;87.67;94654.97;5038426;28;20228;-69
2021/12/08 11:43:14;;;;;;;5.77;3.27;;;;;;;5.37;86.92;94658.63;5037674;28;20272;-70
2021/12/08 11:45:42;;;;;;;3.30;2.27;;;;;;;5.33;86.81;94665.22;5038077;28;20209;-69
2021/12/08 11:48:25;;;;;;;7.83;3.57;;;;;;;5.63;85.93;94662.34;5038017;28;20215;-70
2021/12/08 11:51:07;;;;;;;6.60;3.03;;;;;;;5.29;87.20;94680.41;5036376;28;20232;-69
2021/12/08 11:53:38;;;;;;;5.03;1.93;;;;;;;4.94;88.54;94675.97;5037054;28;20197;-69
2021/12/08 11:56:05;;;;;;;5.50;2.90;;;;;;;4.83;88.27;94667.78;5038119;28;20228;-70
2021/12/08 11:58:33;;;;;;;4.30;2.57;;;;;;;5.11;88.18;94672.16;5038809;28;20205;-70
2021/12/08 12:01:02;;;;;;;8.10;3.40;;;;;;;5.25;87.51;94671.34;5037474;28;20236;-69
2021/12/08 12:03:29;;;;;;;7.33;2.60;;;;;;;5.14;86.78;94663.16;5036302;28;20224;-69
2021/12/08 12:05:56;;;;;;;2.70;2.13;;;;;;;4.94;87.46;94657.69;5037664;28;20676;-69
2021/12/08 12:08:23;;;;;;;6.10;2.93;;;;;;;5.01;88.29;94669.00;5038126;28;20204;-69
2021/12/08 12:10:53;;;;;;;5.50;3.53;;;;;;;5.43;87.00;94670.94;5037836;28;20409;-69
2021/12/08 12:13:20;;;;;;;6.53;2.90;;;;;;;5.21;87.59;94675.31;5036496;28;20613;-69
2021/12/08 12:15:50;;;;;;;5.13;3.43;;;;;;;5.31;87.68;94680.22;5037709;28;20201;-69
2021/12/08 12:18:18;;;;;;;2.93;1.67;;;;;;;5.25;87.49;94678.38;5036971;28;20197;-69
2021/12/08 12:20:47;;;;;;;3.20;2.63;;;;;;;5.37;87.23;94679.50;5037874;28;20221;-69
2021/12/08 12:23:45;;;;;;;3.97;2.37;;;;;;;5.69;85.82;94669.41;5032980;28;20229;-69
2021/12/08 12:26:20;;;;;;;2.90;2.37;;;;;;;5.56;86.64;94691.00;5036707;28;20201;-68